sensor_id;sensor_type;location;lat;lon;timestamp;temperature;humidity
18240;DHT22;9244;50.828;4.718;2023-09-07T00:00:00;17.40;99.90
18240;DHT22;9244;50.828;4.718;2023-09-07T00:02:26;17.40;99.90
18240;DHT22;9244;50.828;4.718;2023-09-07T00:04:52;17.30;99.90
18240;DHT22;9244;50.828;4.718;2023-09-07T00:07:17;17.30;99.90
18240;DHT22;9244;50.828;4.718;2023-09-07T00:09:43;17.20;99.90
18240;DHT22;9244;50.828;4.718;2023-09-07T00:12:08;17.10;99.90
18240;DHT22;9244;50.828;4.718;2023-09-07T00:14:34;17.00;99.90
18240;DHT22;9244;50.828;4.718;2023-09-07T00:16:59;17.00;99.90
18240;DHT22;9244;50.828;4.718;2023-09-07T00:19:25;17.10;99.90
18240;DHT22;9244;50.828;4.718;2023-09-07T00:21:51;17.10;99.90
18240;DHT22;9244;50.828;4.718;2023-09-07T00:24:17;17.00;99.90
18240;DHT22;9244;50.828;4.718;2023-09-07T00:26:44;16.90;99.90
18240;DHT22;9244;50.828;4.718;2023-09-07T00:29:10;16.80;99.90
18240;DHT22;9244;50.828;4.718;2023-09-07T00:31:35;16.90;99.90
18240;DHT22;9244;50.828;4.718;2023-09-07T00:34:01;16.70;99.90
18240;DHT22;9244;50.828;4.718;2023-09-07T00:36:27;16.80;99.90
18240;DHT22;9244;50.828;4.718;2023-09-07T00:38:52;16.70;99.90
18240;DHT22;9244;50.828;4.718;2023-09-07T00:41:18;16.70;99.90
18240;DHT22;9244;50.828;4.718;2023-09-07T00:43:43;16.60;99.90
18240;DHT22;9244;50.828;4.718;2023-09-07T00:46:09;16.60;99.90
18240;DHT22;9244;50.828;4.718;2023-09-07T00:48:35;16.60;99.90
18240;DHT22;9244;50.828;4.718;2023-09-07T00:51:01;16.70;99.90
18240;DHT22;9244;50.828;4.718;2023-09-07T00:53:27;16.70;99.90
18240;DHT22;9244;50.828;4.718;2023-09-07T00:55:54;16.70;99.90
18240;DHT22;9244;50.828;4.718;2023-09-07T00:58:21;16.70;99.90
18240;DHT22;9244;50.828;4.718;2023-09-07T01:00:47;16.60;99.90
18240;DHT22;9244;50.828;4.718;2023-09-07T01:03:13;16.70;99.90
18240;DHT22;9244;50.828;4.718;2023-09-07T01:06:25;16.60;99.90
18240;DHT22;9244;50.828;4.718;2023-09-07T01:08:51;16.60;99.90
18240;DHT22;9244;50.828;4.718;2023-09-07T01:11:18;16.50;99.90
18240;DHT22;9244;50.828;4.718;2023-09-07T01:13:48;16.40;99.90
18240;DHT22;9244;50.828;4.718;2023-09-07T01:16:14;16.50;99.90
18240;DHT22;9244;50.828;4.718;2023-09-07T01:18:41;16.50;99.90
18240;DHT22;9244;50.828;4.718;2023-09-07T01:21:07;16.60;99.90
18240;DHT22;9244;50.828;4.718;2023-09-07T01:23:38;16.70;99.90
18240;DHT22;9244;50.828;4.718;2023-09-07T01:26:07;16.70;99.90
18240;DHT22;9244;50.828;4.718;2023-09-07T01:28:33;16.70;99.90
18240;DHT22;9244;50.828;4.718;2023-09-07T01:30:59;16.60;99.90
18240;DHT22;9244;50.828;4.718;2023-09-07T01:33:25;16.60;99.90
18240;DHT22;9244;50.828;4.718;2023-09-07T01:35:50;16.50;99.90
18240;DHT22;9244;50.828;4.718;2023-09-07T01:38:16;16.60;99.90
18240;DHT22;9244;50.828;4.718;2023-09-07T01:40:42;16.90;99.90
18240;DHT22;9244;50.828;4.718;2023-09-07T01:43:07;17.00;99.90
18240;DHT22;9244;50.828;4.718;2023-09-07T01:45:33;16.80;99.90
18240;DHT22;9244;50.828;4.718;2023-09-07T01:47:59;16.90;99.90
18240;DHT22;9244;50.828;4.718;2023-09-07T01:50:25;16.90;99.90
18240;DHT22;9244;50.828;4.718;2023-09-07T01:52:51;16.90;99.90
18240;DHT22;9244;50.828;4.718;2023-09-07T01:55:17;17.00;99.90
18240;DHT22;9244;50.828;4.718;2023-09-07T01:57:43;17.00;99.90
18240;DHT22;9244;50.828;4.718;2023-09-07T02:00:10;16.90;99.90
18240;DHT22;9244;50.828;4.718;2023-09-07T02:02:36;16.80;99.90
18240;DHT22;9244;50.828;4.718;2023-09-07T02:05:01;16.90;99.90
18240;DHT22;9244;50.828;4.718;2023-09-07T02:07:27;17.20;99.90
18240;DHT22;9244;50.828;4.718;2023-09-07T02:09:53;17.20;99.90
18240;DHT22;9244;50.828;4.718;2023-09-07T02:12:19;17.30;99.90
18240;DHT22;9244;50.828;4.718;2023-09-07T02:14:44;17.30;99.90
18240;DHT22;9244;50.828;4.718;2023-09-07T02:17:10;17.10;99.90
18240;DHT22;9244;50.828;4.718;2023-09-07T02:19:39;16.90;99.90
18240;DHT22;9244;50.828;4.718;2023-09-07T02:22:05;16.70;99.90
18240;DHT22;9244;50.828;4.718;2023-09-07T02:24:30;16.60;99.90
18240;DHT22;9244;50.828;4.718;2023-09-07T02:26:56;16.40;99.90
18240;DHT22;9244;50.828;4.718;2023-09-07T02:29:22;16.30;99.90
18240;DHT22;9244;50.828;4.718;2023-09-07T02:31:47;16.30;99.90
18240;DHT22;9244;50.828;4.718;2023-09-07T02:34:13;16.30;99.90
18240;DHT22;9244;50.828;4.718;2023-09-07T02:36:38;16.50;99.90
18240;DHT22;9244;50.828;4.718;2023-09-07T02:39:04;16.50;99.90
18240;DHT22;9244;50.828;4.718;2023-09-07T02:41:31;16.60;99.90
18240;DHT22;9244;50.828;4.718;2023-09-07T02:43:57;16.70;99.90
18240;DHT22;9244;50.828;4.718;2023-09-07T02:46:22;16.70;99.90
18240;DHT22;9244;50.828;4.718;2023-09-07T02:48:48;16.80;99.90
18240;DHT22;9244;50.828;4.718;2023-09-07T02:51:13;16.90;99.90
18240;DHT22;9244;50.828;4.718;2023-09-07T02:53:39;17.00;99.90
18240;DHT22;9244;50.828;4.718;2023-09-07T02:56:05;17.10;99.90
18240;DHT22;9244;50.828;4.718;2023-09-07T02:58:31;17.40;99.90
18240;DHT22;9244;50.828;4.718;2023-09-07T03:00:56;17.20;99.90
18240;DHT22;9244;50.828;4.718;2023-09-07T03:03:23;17.10;99.90
18240;DHT22;9244;50.828;4.718;2023-09-07T03:05:49;16.90;99.90
18240;DHT22;9244;50.828;4.718;2023-09-07T03:08:14;16.60;99.90
18240;DHT22;9244;50.828;4.718;2023-09-07T03:10:40;16.50;99.90
18240;DHT22;9244;50.828;4.718;2023-09-07T03:13:06;16.30;99.90
18240;DHT22;9244;50.828;4.718;2023-09-07T03:15:32;16.20;99.90
18240;DHT22;9244;50.828;4.718;2023-09-07T03:17:58;16.30;99.90
18240;DHT22;9244;50.828;4.718;2023-09-07T03:20:24;16.60;99.90
18240;DHT22;9244;50.828;4.718;2023-09-07T03:22:49;16.70;99.90
18240;DHT22;9244;50.828;4.718;2023-09-07T03:25:15;16.90;99.90
18240;DHT22;9244;50.828;4.718;2023-09-07T03:27:41;16.70;99.90
18240;DHT22;9244;50.828;4.718;2023-09-07T03:30:07;16.60;99.90
18240;DHT22;9244;50.828;4.718;2023-09-07T03:32:33;16.60;99.90
18240;DHT22;9244;50.828;4.718;2023-09-07T03:34:59;16.40;99.90
18240;DHT22;9244;50.828;4.718;2023-09-07T03:37:26;16.40;99.90
18240;DHT22;9244;50.828;4.718;2023-09-07T03:39:53;16.20;99.90
18240;DHT22;9244;50.828;4.718;2023-09-07T03:42:18;16.20;99.90
18240;DHT22;9244;50.828;4.718;2023-09-07T03:44:44;16.00;99.90
18240;DHT22;9244;50.828;4.718;2023-09-07T03:47:10;15.90;99.90
18240;DHT22;9244;50.828;4.718;2023-09-07T03:49:36;15.90;99.90
18240;DHT22;9244;50.828;4.718;2023-09-07T03:52:02;15.90;99.90
18240;DHT22;9244;50.828;4.718;2023-09-07T03:54:27;15.80;99.90
18240;DHT22;9244;50.828;4.718;2023-09-07T03:56:53;15.80;99.90
18240;DHT22;9244;50.828;4.718;2023-09-07T03:59:19;15.60;99.90
18240;DHT22;9244;50.828;4.718;2023-09-07T04:01:44;15.30;99.90
18240;DHT22;9244;50.828;4.718;2023-09-07T04:04:10;15.40;99.90
18240;DHT22;9244;50.828;4.718;2023-09-07T04:06:35;15.30;99.90
18240;DHT22;9244;50.828;4.718;2023-09-07T04:09:01;15.20;99.90
18240;DHT22;9244;50.828;4.718;2023-09-07T04:11:27;15.10;99.90
18240;DHT22;9244;50.828;4.718;2023-09-07T04:13:52;15.10;99.90
18240;DHT22;9244;50.828;4.718;2023-09-07T04:16:18;15.10;99.90
18240;DHT22;9244;50.828;4.718;2023-09-07T04:18:43;15.00;99.90
18240;DHT22;9244;50.828;4.718;2023-09-07T04:21:09;14.90;99.90
18240;DHT22;9244;50.828;4.718;2023-09-07T04:23:35;15.00;99.90
18240;DHT22;9244;50.828;4.718;2023-09-07T04:26:08;14.80;99.90
18240;DHT22;9244;50.828;4.718;2023-09-07T04:28:34;14.90;99.90
18240;DHT22;9244;50.828;4.718;2023-09-07T04:31:00;14.80;99.90
18240;DHT22;9244;50.828;4.718;2023-09-07T04:33:25;14.80;99.90
18240;DHT22;9244;50.828;4.718;2023-09-07T04:35:51;14.70;99.90
18240;DHT22;9244;50.828;4.718;2023-09-07T04:38:17;14.80;99.90
18240;DHT22;9244;50.828;4.718;2023-09-07T04:40:42;14.70;99.90
18240;DHT22;9244;50.828;4.718;2023-09-07T04:43:08;14.70;99.90
18240;DHT22;9244;50.828;4.718;2023-09-07T04:45:33;14.60;99.90
18240;DHT22;9244;50.828;4.718;2023-09-07T04:47:59;14.50;99.90
18240;DHT22;9244;50.828;4.718;2023-09-07T04:50:25;14.50;99.90
18240;DHT22;9244;50.828;4.718;2023-09-07T04:52:51;14.50;99.90
18240;DHT22;9244;50.828;4.718;2023-09-07T04:55:16;14.60;99.90
18240;DHT22;9244;50.828;4.718;2023-09-07T04:57:42;14.60;99.90
18240;DHT22;9244;50.828;4.718;2023-09-07T05:00:08;14.50;99.90
18240;DHT22;9244;50.828;4.718;2023-09-07T05:02:34;14.40;99.90
18240;DHT22;9244;50.828;4.718;2023-09-07T05:05:06;14.30;99.90
18240;DHT22;9244;50.828;4.718;2023-09-07T05:07:33;14.30;99.90
18240;DHT22;9244;50.828;4.718;2023-09-07T05:09:58;14.20;99.90
18240;DHT22;9244;50.828;4.718;2023-09-07T05:12:24;14.30;99.90
18240;DHT22;9244;50.828;4.718;2023-09-07T05:14:49;14.20;99.90
18240;DHT22;9244;50.828;4.718;2023-09-07T05:17:15;14.20;99.90
18240;DHT22;9244;50.828;4.718;2023-09-07T05:19:41;14.30;99.90
18240;DHT22;9244;50.828;4.718;2023-09-07T05:22:06;14.30;99.90
18240;DHT22;9244;50.828;4.718;2023-09-07T05:24:32;14.40;99.90
18240;DHT22;9244;50.828;4.718;2023-09-07T05:26:57;14.50;99.90
18240;DHT22;9244;50.828;4.718;2023-09-07T05:29:23;14.50;99.90
18240;DHT22;9244;50.828;4.718;2023-09-07T05:31:48;14.60;99.90
18240;DHT22;9244;50.828;4.718;2023-09-07T05:34:14;14.80;99.90
18240;DHT22;9244;50.828;4.718;2023-09-07T05:36:40;14.70;99.90
18240;DHT22;9244;50.828;4.718;2023-09-07T05:39:05;14.60;99.90
18240;DHT22;9244;50.828;4.718;2023-09-07T05:41:31;14.60;99.90
18240;DHT22;9244;50.828;4.718;2023-09-07T05:43:57;14.60;99.90
18240;DHT22;9244;50.828;4.718;2023-09-07T05:46:22;14.60;99.90
18240;DHT22;9244;50.828;4.718;2023-09-07T05:48:48;14.70;99.90
18240;DHT22;9244;50.828;4.718;2023-09-07T05:51:14;14.70;99.90
18240;DHT22;9244;50.828;4.718;2023-09-07T05:53:39;14.70;99.90
18240;DHT22;9244;50.828;4.718;2023-09-07T05:56:05;14.60;99.90
18240;DHT22;9244;50.828;4.718;2023-09-07T05:58:31;14.60;99.90
18240;DHT22;9244;50.828;4.718;2023-09-07T06:00:56;14.60;99.90
18240;DHT22;9244;50.828;4.718;2023-09-07T06:03:22;14.70;99.90
18240;DHT22;9244;50.828;4.718;2023-09-07T06:05:48;14.70;99.90
18240;DHT22;9244;50.828;4.718;2023-09-07T06:08:13;14.80;99.90
18240;DHT22;9244;50.828;4.718;2023-09-07T06:10:39;14.90;99.90
18240;DHT22;9244;50.828;4.718;2023-09-07T06:13:05;15.10;99.90
18240;DHT22;9244;50.828;4.718;2023-09-07T06:15:30;15.20;99.90
18240;DHT22;9244;50.828;4.718;2023-09-07T06:17:56;15.40;99.90
18240;DHT22;9244;50.828;4.718;2023-09-07T06:20:22;15.50;99.90
18240;DHT22;9244;50.828;4.718;2023-09-07T06:22:47;15.40;99.90
18240;DHT22;9244;50.828;4.718;2023-09-07T06:25:14;15.70;99.90
18240;DHT22;9244;50.828;4.718;2023-09-07T06:27:40;16.00;99.90
18240;DHT22;9244;50.828;4.718;2023-09-07T06:30:06;16.20;99.90
18240;DHT22;9244;50.828;4.718;2023-09-07T06:32:32;16.80;99.90
18240;DHT22;9244;50.828;4.718;2023-09-07T06:34:58;17.00;99.90
18240;DHT22;9244;50.828;4.718;2023-09-07T06:37:24;17.20;99.90
18240;DHT22;9244;50.828;4.718;2023-09-07T06:39:50;17.40;99.90
18240;DHT22;9244;50.828;4.718;2023-09-07T06:42:16;17.40;99.90
18240;DHT22;9244;50.828;4.718;2023-09-07T06:44:42;17.50;99.90
18240;DHT22;9244;50.828;4.718;2023-09-07T06:47:08;17.50;99.90
18240;DHT22;9244;50.828;4.718;2023-09-07T06:49:34;17.70;99.90
18240;DHT22;9244;50.828;4.718;2023-09-07T06:52:00;17.80;99.90
18240;DHT22;9244;50.828;4.718;2023-09-07T06:54:28;17.90;99.90
18240;DHT22;9244;50.828;4.718;2023-09-07T06:56:53;17.90;99.90
18240;DHT22;9244;50.828;4.718;2023-09-07T06:59:19;18.10;99.90
18240;DHT22;9244;50.828;4.718;2023-09-07T07:01:44;18.20;99.90
18240;DHT22;9244;50.828;4.718;2023-09-07T07:04:10;18.30;99.90
18240;DHT22;9244;50.828;4.718;2023-09-07T07:06:36;18.40;99.90
18240;DHT22;9244;50.828;4.718;2023-09-07T07:09:01;18.50;99.90
18240;DHT22;9244;50.828;4.718;2023-09-07T07:11:27;18.50;99.90
18240;DHT22;9244;50.828;4.718;2023-09-07T07:13:52;18.60;99.90
18240;DHT22;9244;50.828;4.718;2023-09-07T07:16:18;18.80;99.90
18240;DHT22;9244;50.828;4.718;2023-09-07T07:18:44;19.20;99.90
18240;DHT22;9244;50.828;4.718;2023-09-07T07:21:09;19.60;99.90
18240;DHT22;9244;50.828;4.718;2023-09-07T07:23:35;20.00;99.90
18240;DHT22;9244;50.828;4.718;2023-09-07T07:26:01;20.30;99.90
18240;DHT22;9244;50.828;4.718;2023-09-07T07:28:27;21.00;99.90
18240;DHT22;9244;50.828;4.718;2023-09-07T07:30:53;21.40;99.90
18240;DHT22;9244;50.828;4.718;2023-09-07T07:33:19;22.00;99.90
18240;DHT22;9244;50.828;4.718;2023-09-07T07:35:45;22.30;99.90
18240;DHT22;9244;50.828;4.718;2023-09-07T07:38:12;22.30;99.90
18240;DHT22;9244;50.828;4.718;2023-09-07T07:40:39;22.60;99.90
18240;DHT22;9244;50.828;4.718;2023-09-07T07:43:05;23.10;99.90
18240;DHT22;9244;50.828;4.718;2023-09-07T07:45:31;23.50;99.90
18240;DHT22;9244;50.828;4.718;2023-09-07T07:48:02;23.80;99.90
18240;DHT22;9244;50.828;4.718;2023-09-07T07:50:27;23.90;99.90
18240;DHT22;9244;50.828;4.718;2023-09-07T07:52:53;23.90;99.90
18240;DHT22;9244;50.828;4.718;2023-09-07T07:55:19;24.00;99.90
18240;DHT22;9244;50.828;4.718;2023-09-07T07:57:44;24.20;99.90
18240;DHT22;9244;50.828;4.718;2023-09-07T08:00:10;24.30;99.90
18240;DHT22;9244;50.828;4.718;2023-09-07T08:02:36;24.30;99.90
18240;DHT22;9244;50.828;4.718;2023-09-07T08:05:03;23.80;99.90
18240;DHT22;9244;50.828;4.718;2023-09-07T08:07:29;23.50;99.90
18240;DHT22;9244;50.828;4.718;2023-09-07T08:09:55;23.70;99.90
18240;DHT22;9244;50.828;4.718;2023-09-07T08:12:21;23.70;99.90
18240;DHT22;9244;50.828;4.718;2023-09-07T08:14:46;23.80;99.90
18240;DHT22;9244;50.828;4.718;2023-09-07T08:17:12;24.00;99.90
18240;DHT22;9244;50.828;4.718;2023-09-07T08:19:38;23.90;99.90
18240;DHT22;9244;50.828;4.718;2023-09-07T08:22:04;24.10;99.90
18240;DHT22;9244;50.828;4.718;2023-09-07T08:24:30;24.40;99.90
18240;DHT22;9244;50.828;4.718;2023-09-07T08:26:56;24.70;99.90
18240;DHT22;9244;50.828;4.718;2023-09-07T08:29:26;24.90;99.90
18240;DHT22;9244;50.828;4.718;2023-09-07T08:31:53;25.00;99.90
18240;DHT22;9244;50.828;4.718;2023-09-07T08:34:19;25.00;99.90
18240;DHT22;9244;50.828;4.718;2023-09-07T08:36:46;24.70;99.90
18240;DHT22;9244;50.828;4.718;2023-09-07T08:39:13;24.80;99.90
18240;DHT22;9244;50.828;4.718;2023-09-07T08:41:42;25.00;99.90
18240;DHT22;9244;50.828;4.718;2023-09-07T08:44:15;24.90;99.90
18240;DHT22;9244;50.828;4.718;2023-09-07T08:46:43;25.20;99.90
18240;DHT22;9244;50.828;4.718;2023-09-07T08:49:09;25.30;99.90
18240;DHT22;9244;50.828;4.718;2023-09-07T08:51:37;25.40;99.90
18240;DHT22;9244;50.828;4.718;2023-09-07T08:54:04;25.40;99.90
18240;DHT22;9244;50.828;4.718;2023-09-07T08:56:30;25.40;99.90
18240;DHT22;9244;50.828;4.718;2023-09-07T08:58:56;25.40;99.90
18240;DHT22;9244;50.828;4.718;2023-09-07T09:01:22;25.40;99.90
18240;DHT22;9244;50.828;4.718;2023-09-07T09:03:49;25.60;99.90
18240;DHT22;9244;50.828;4.718;2023-09-07T09:06:16;25.80;99.90
18240;DHT22;9244;50.828;4.718;2023-09-07T09:08:49;25.70;99.90
18240;DHT22;9244;50.828;4.718;2023-09-07T09:11:15;25.70;99.90
18240;DHT22;9244;50.828;4.718;2023-09-07T09:13:42;25.80;99.90
18240;DHT22;9244;50.828;4.718;2023-09-07T09:16:11;26.10;99.90
18240;DHT22;9244;50.828;4.718;2023-09-07T09:18:38;26.10;99.90
18240;DHT22;9244;50.828;4.718;2023-09-07T09:21:04;26.50;99.90
18240;DHT22;9244;50.828;4.718;2023-09-07T09:23:35;26.60;99.90
18240;DHT22;9244;50.828;4.718;2023-09-07T09:26:01;26.80;99.90
18240;DHT22;9244;50.828;4.718;2023-09-07T09:28:30;26.70;99.90
18240;DHT22;9244;50.828;4.718;2023-09-07T09:30:58;26.90;99.90
18240;DHT22;9244;50.828;4.718;2023-09-07T09:33:24;27.20;99.90
18240;DHT22;9244;50.828;4.718;2023-09-07T09:35:51;27.40;99.90
18240;DHT22;9244;50.828;4.718;2023-09-07T09:38:18;27.50;99.90
18240;DHT22;9244;50.828;4.718;2023-09-07T09:40:44;28.00;99.90
18240;DHT22;9244;50.828;4.718;2023-09-07T09:43:12;28.30;99.90
18240;DHT22;9244;50.828;4.718;2023-09-07T09:45:38;28.70;99.90
18240;DHT22;9244;50.828;4.718;2023-09-07T09:48:05;28.80;99.90
18240;DHT22;9244;50.828;4.718;2023-09-07T09:50:32;29.00;99.90
18240;DHT22;9244;50.828;4.718;2023-09-07T09:53:06;28.90;99.90
18240;DHT22;9244;50.828;4.718;2023-09-07T09:55:34;29.50;99.90
18240;DHT22;9244;50.828;4.718;2023-09-07T09:58:00;29.50;99.90
18240;DHT22;9244;50.828;4.718;2023-09-07T10:00:27;29.20;99.90
18240;DHT22;9244;50.828;4.718;2023-09-07T10:03:20;29.10;99.90
18240;DHT22;9244;50.828;4.718;2023-09-07T10:05:49;28.40;99.90
18240;DHT22;9244;50.828;4.718;2023-09-07T10:08:17;28.60;99.90
18240;DHT22;9244;50.828;4.718;2023-09-07T10:10:46;28.50;99.90
18240;DHT22;9244;50.828;4.718;2023-09-07T10:13:15;28.50;99.90
18240;DHT22;9244;50.828;4.718;2023-09-07T10:15:42;28.60;99.90
18240;DHT22;9244;50.828;4.718;2023-09-07T10:18:13;28.90;99.90
18240;DHT22;9244;50.828;4.718;2023-09-07T10:20:58;28.80;99.90
18240;DHT22;9244;50.828;4.718;2023-09-07T10:23:41;28.60;99.90
18240;DHT22;9244;50.828;4.718;2023-09-07T10:26:25;28.90;99.90
18240;DHT22;9244;50.828;4.718;2023-09-07T10:29:09;29.10;99.90
18240;DHT22;9244;50.828;4.718;2023-09-07T10:31:35;29.80;99.90
18240;DHT22;9244;50.828;4.718;2023-09-07T10:34:09;29.50;99.90
18240;DHT22;9244;50.828;4.718;2023-09-07T10:36:37;29.30;99.90
18240;DHT22;9244;50.828;4.718;2023-09-07T10:39:03;29.60;99.90
18240;DHT22;9244;50.828;4.718;2023-09-07T10:41:40;29.50;99.90
18240;DHT22;9244;50.828;4.718;2023-09-07T10:44:07;29.60;99.90
18240;DHT22;9244;50.828;4.718;2023-09-07T10:46:32;29.10;99.90
18240;DHT22;9244;50.828;4.718;2023-09-07T10:48:58;29.00;99.90
18240;DHT22;9244;50.828;4.718;2023-09-07T10:51:24;29.00;99.90
18240;DHT22;9244;50.828;4.718;2023-09-07T10:53:50;28.90;99.90
18240;DHT22;9244;50.828;4.718;2023-09-07T10:56:15;29.30;99.90
18240;DHT22;9244;50.828;4.718;2023-09-07T10:58:41;29.40;99.90
18240;DHT22;9244;50.828;4.718;2023-09-07T11:01:09;29.60;99.90
18240;DHT22;9244;50.828;4.718;2023-09-07T11:03:35;29.50;99.90
18240;DHT22;9244;50.828;4.718;2023-09-07T11:06:13;29.80;99.90
18240;DHT22;9244;50.828;4.718;2023-09-07T11:08:39;29.50;99.90
18240;DHT22;9244;50.828;4.718;2023-09-07T11:11:05;29.50;99.90
18240;DHT22;9244;50.828;4.718;2023-09-07T11:13:31;29.50;99.90
18240;DHT22;9244;50.828;4.718;2023-09-07T11:15:58;29.60;99.90
18240;DHT22;9244;50.828;4.718;2023-09-07T11:18:25;29.70;99.90
18240;DHT22;9244;50.828;4.718;2023-09-07T11:20:52;30.40;99.90
18240;DHT22;9244;50.828;4.718;2023-09-07T11:23:19;30.70;99.90
18240;DHT22;9244;50.828;4.718;2023-09-07T11:25:47;31.00;99.90
18240;DHT22;9244;50.828;4.718;2023-09-07T11:28:17;30.70;99.90
18240;DHT22;9244;50.828;4.718;2023-09-07T11:30:53;30.30;99.90
18240;DHT22;9244;50.828;4.718;2023-09-07T11:33:21;29.90;99.90
18240;DHT22;9244;50.828;4.718;2023-09-07T11:35:47;30.00;99.90
18240;DHT22;9244;50.828;4.718;2023-09-07T11:38:14;30.60;99.90
18240;DHT22;9244;50.828;4.718;2023-09-07T11:40:41;30.80;99.90
18240;DHT22;9244;50.828;4.718;2023-09-07T11:43:17;31.50;99.90
18240;DHT22;9244;50.828;4.718;2023-09-07T11:45:46;31.00;99.90
18240;DHT22;9244;50.828;4.718;2023-09-07T11:48:12;31.40;99.90
18240;DHT22;9244;50.828;4.718;2023-09-07T11:50:39;30.60;99.90
18240;DHT22;9244;50.828;4.718;2023-09-07T11:53:05;31.10;99.90
18240;DHT22;9244;50.828;4.718;2023-09-07T11:55:32;31.40;99.90
18240;DHT22;9244;50.828;4.718;2023-09-07T11:57:58;32.00;99.90
18240;DHT22;9244;50.828;4.718;2023-09-07T12:00:23;32.10;99.90
18240;DHT22;9244;50.828;4.718;2023-09-07T12:02:49;32.40;99.90
18240;DHT22;9244;50.828;4.718;2023-09-07T12:05:15;32.40;99.90
18240;DHT22;9244;50.828;4.718;2023-09-07T12:07:41;31.90;99.90
18240;DHT22;9244;50.828;4.718;2023-09-07T12:10:10;32.20;99.90
18240;DHT22;9244;50.828;4.718;2023-09-07T12:12:40;33.00;99.90
18240;DHT22;9244;50.828;4.718;2023-09-07T12:15:06;33.60;99.90
18240;DHT22;9244;50.828;4.718;2023-09-07T12:17:32;34.10;99.90
18240;DHT22;9244;50.828;4.718;2023-09-07T12:19:59;32.20;99.90
18240;DHT22;9244;50.828;4.718;2023-09-07T12:22:26;31.20;99.90
18240;DHT22;9244;50.828;4.718;2023-09-07T12:24:52;31.80;99.90
18240;DHT22;9244;50.828;4.718;2023-09-07T12:27:18;31.90;99.90
18240;DHT22;9244;50.828;4.718;2023-09-07T12:29:44;32.50;99.90
18240;DHT22;9244;50.828;4.718;2023-09-07T12:32:10;32.80;99.90
18240;DHT22;9244;50.828;4.718;2023-09-07T12:34:36;32.70;99.90
18240;DHT22;9244;50.828;4.718;2023-09-07T12:37:02;33.30;99.90
18240;DHT22;9244;50.828;4.718;2023-09-07T12:39:30;32.80;99.90
18240;DHT22;9244;50.828;4.718;2023-09-07T12:41:55;31.80;99.90
18240;DHT22;9244;50.828;4.718;2023-09-07T12:44:21;31.80;99.90
18240;DHT22;9244;50.828;4.718;2023-09-07T12:46:47;31.60;99.90
18240;DHT22;9244;50.828;4.718;2023-09-07T12:49:12;32.30;99.90
18240;DHT22;9244;50.828;4.718;2023-09-07T12:51:40;32.90;99.90
18240;DHT22;9244;50.828;4.718;2023-09-07T12:54:06;33.00;99.90
18240;DHT22;9244;50.828;4.718;2023-09-07T12:56:32;33.30;99.90
18240;DHT22;9244;50.828;4.718;2023-09-07T12:58:58;33.40;99.90
18240;DHT22;9244;50.828;4.718;2023-09-07T13:01:25;33.20;99.90
18240;DHT22;9244;50.828;4.718;2023-09-07T13:03:51;32.30;99.90
18240;DHT22;9244;50.828;4.718;2023-09-07T13:06:17;32.00;99.90
18240;DHT22;9244;50.828;4.718;2023-09-07T13:08:43;32.20;99.90
18240;DHT22;9244;50.828;4.718;2023-09-07T13:11:10;31.70;99.90
18240;DHT22;9244;50.828;4.718;2023-09-07T13:13:36;32.20;99.90
18240;DHT22;9244;50.828;4.718;2023-09-07T13:16:01;31.70;99.90
18240;DHT22;9244;50.828;4.718;2023-09-07T13:18:27;32.30;99.90
18240;DHT22;9244;50.828;4.718;2023-09-07T13:20:53;31.80;99.90
18240;DHT22;9244;50.828;4.718;2023-09-07T13:23:28;31.80;99.90
18240;DHT22;9244;50.828;4.718;2023-09-07T13:25:57;32.60;99.90
18240;DHT22;9244;50.828;4.718;2023-09-07T13:28:23;31.90;99.90
18240;DHT22;9244;50.828;4.718;2023-09-07T13:30:50;31.70;99.90
18240;DHT22;9244;50.828;4.718;2023-09-07T13:33:16;32.20;99.90
18240;DHT22;9244;50.828;4.718;2023-09-07T13:35:41;31.70;99.90
18240;DHT22;9244;50.828;4.718;2023-09-07T13:38:07;31.00;99.90
18240;DHT22;9244;50.828;4.718;2023-09-07T13:40:33;31.20;99.90
18240;DHT22;9244;50.828;4.718;2023-09-07T13:42:59;31.40;99.90
18240;DHT22;9244;50.828;4.718;2023-09-07T13:45:25;31.50;99.90
18240;DHT22;9244;50.828;4.718;2023-09-07T13:47:50;31.70;99.90
18240;DHT22;9244;50.828;4.718;2023-09-07T13:50:16;32.00;99.90
18240;DHT22;9244;50.828;4.718;2023-09-07T13:52:42;32.00;99.90
18240;DHT22;9244;50.828;4.718;2023-09-07T13:55:08;31.70;99.90
18240;DHT22;9244;50.828;4.718;2023-09-07T13:57:34;30.80;99.90
18240;DHT22;9244;50.828;4.718;2023-09-07T13:59:59;30.90;99.90
18240;DHT22;9244;50.828;4.718;2023-09-07T14:02:25;30.60;99.90
18240;DHT22;9244;50.828;4.718;2023-09-07T14:04:51;30.50;99.90
18240;DHT22;9244;50.828;4.718;2023-09-07T14:07:17;31.10;99.90
18240;DHT22;9244;50.828;4.718;2023-09-07T14:09:43;30.50;99.90
18240;DHT22;9244;50.828;4.718;2023-09-07T14:12:09;31.10;99.90
18240;DHT22;9244;50.828;4.718;2023-09-07T14:14:35;31.00;99.90
18240;DHT22;9244;50.828;4.718;2023-09-07T14:17:01;30.50;99.90
18240;DHT22;9244;50.828;4.718;2023-09-07T14:19:27;30.00;99.90
18240;DHT22;9244;50.828;4.718;2023-09-07T14:21:56;30.20;99.90
18240;DHT22;9244;50.828;4.718;2023-09-07T14:24:22;30.10;99.90
18240;DHT22;9244;50.828;4.718;2023-09-07T14:26:48;30.70;99.90
18240;DHT22;9244;50.828;4.718;2023-09-07T14:29:14;31.00;99.90
18240;DHT22;9244;50.828;4.718;2023-09-07T14:31:39;30.30;99.90
18240;DHT22;9244;50.828;4.718;2023-09-07T14:34:07;30.30;99.90
18240;DHT22;9244;50.828;4.718;2023-09-07T14:36:33;30.40;99.90
18240;DHT22;9244;50.828;4.718;2023-09-07T14:38:59;30.70;99.90
18240;DHT22;9244;50.828;4.718;2023-09-07T14:41:24;30.50;99.90
18240;DHT22;9244;50.828;4.718;2023-09-07T14:43:50;30.70;99.90
18240;DHT22;9244;50.828;4.718;2023-09-07T14:46:16;30.40;99.90
18240;DHT22;9244;50.828;4.718;2023-09-07T14:48:43;30.40;99.90
18240;DHT22;9244;50.828;4.718;2023-09-07T14:51:09;30.40;99.90
18240;DHT22;9244;50.828;4.718;2023-09-07T14:53:35;30.30;99.90
18240;DHT22;9244;50.828;4.718;2023-09-07T14:56:00;30.20;99.90
18240;DHT22;9244;50.828;4.718;2023-09-07T14:58:26;30.30;99.90
18240;DHT22;9244;50.828;4.718;2023-09-07T15:00:52;30.20;99.90
18240;DHT22;9244;50.828;4.718;2023-09-07T15:03:17;30.60;99.90
18240;DHT22;9244;50.828;4.718;2023-09-07T15:05:43;30.50;99.90
18240;DHT22;9244;50.828;4.718;2023-09-07T15:08:09;30.00;99.90
18240;DHT22;9244;50.828;4.718;2023-09-07T15:10:35;29.90;99.90
18240;DHT22;9244;50.828;4.718;2023-09-07T15:13:01;29.90;99.90
18240;DHT22;9244;50.828;4.718;2023-09-07T15:15:30;30.00;99.90
18240;DHT22;9244;50.828;4.718;2023-09-07T15:17:59;30.10;99.90
18240;DHT22;9244;50.828;4.718;2023-09-07T15:20:25;30.20;99.90
18240;DHT22;9244;50.828;4.718;2023-09-07T15:22:51;29.90;99.90
18240;DHT22;9244;50.828;4.718;2023-09-07T15:25:16;30.00;99.90
18240;DHT22;9244;50.828;4.718;2023-09-07T15:27:45;29.90;99.90
18240;DHT22;9244;50.828;4.718;2023-09-07T15:30:12;29.80;99.90
18240;DHT22;9244;50.828;4.718;2023-09-07T15:32:40;29.80;99.90
18240;DHT22;9244;50.828;4.718;2023-09-07T15:35:09;30.00;99.90
18240;DHT22;9244;50.828;4.718;2023-09-07T15:37:34;30.00;99.90
18240;DHT22;9244;50.828;4.718;2023-09-07T15:40:00;30.10;99.90